Time;durP1;ratioP1;P1;durP2;ratioP2;P2;SDS_P1;SDS_P2;PMS_P1;PMS_P2;Temp;Humidity;BMP_temperature;BMP_pressure;BME280_temperature;BME280_humidity;BME280_pressure;Samples;Min_cycle;Max_cycle;Signal;HPM_P1;HPM_P2
2021/03/25 00:01:55;;;;;;;;;;;;;;;;;;5051248;28;19913;-74
2021/03/25 00:04:21;;;;;;;;;;;;;;;;;;5050477;28;19917;-74
2021/03/25 00:06:50;;;;;;;;;;;;;;;;;;5057819;28;19959;-74
2021/03/25 00:09:19;;;;;;;;;;;;;;;;;;5051681;28;19960;-74
2021/03/25 00:11:45;;;;;;;;;;;;;;;;;;5032908;28;19921;-74
2021/03/25 00:14:10;;;;;;;;;;;;;;;;;;5058713;28;19921;-74
2021/03/25 00:16:36;;;;;;;;;;;;;;;;;;5073947;28;20436;-74
2021/03/25 00:19:01;;;;;;;;;;;;;;;;;;5058257;28;19927;-74
2021/03/25 00:21:27;;;;;;;;;;;;;;;;;;5049756;28;20007;-74
2021/03/25 00:23:53;;;;;;;;;;;;;;;;;;5016581;28;19913;-74
2021/03/25 00:26:18;;;;;;;;;;;;;;;;;;5050923;28;19935;-74
2021/03/25 00:28:43;;;;;;;;;;;;;;;;;;5049688;28;19917;-74
2021/03/25 00:31:09;;;;;;;;;;;;;;;;;;5075158;28;19913;-74
2021/03/25 00:33:34;;;;;;;;;;;;;;;;;;5033231;28;20011;-75
2021/03/25 00:35:59;;;;;;;;;;;;;;;;;;5049514;28;20256;-75
2021/03/25 00:38:25;;;;;;;;;;;;;;;;;;5074774;28;19912;-74
2021/03/25 00:40:50;;;;;;;;;;;;;;;;;;5049481;28;19924;-74
2021/03/25 00:43:17;;;;;;;;;;;;;;;;;;5051061;28;19952;-74
2021/03/25 00:45:43;;;;;;;;;;;;;;;;;;5074824;28;19920;-74
2021/03/25 00:48:09;;;;;;;;;;;;;;;;;;5083638;28;19924;-74
2021/03/25 00:50:36;;;;;;;;;;;;;;;;;;5083247;28;20310;-74
2021/03/25 00:53:02;;;;;;;;;;;;;;;;;;5086068;28;19913;-74
2021/03/25 00:55:27;;;;;;;;;;;;;;;;;;5087118;28;19917;-74
2021/03/25 00:57:52;;;;;;;;;;;;;;;;;;5069988;28;20016;-74
2021/03/25 01:00:20;;;;;;;;;;;;;;;;;;5087031;28;19970;-75
2021/03/25 01:02:45;;;;;;;;;;;;;;;;;;5086934;28;19913;-74
2021/03/25 01:05:11;;;;;;;;;;;;;;;;;;5052996;28;19913;-74
2021/03/25 01:07:36;;;;;;;;;;;;;;;;;;5070282;28;19919;-74
2021/03/25 01:10:07;;;;;;;;;;;;;;;;;;5072084;28;20307;-74
2021/03/25 01:12:32;;;;;;;;;;;;;;;;;;5016760;28;19963;-74
2021/03/25 01:14:57;;;;;;;;;;;;;;;;;;5047421;28;20365;-75
2021/03/25 01:17:23;;;;;;;;;;;;;;;;;;5033140;28;19917;-74
2021/03/25 01:19:48;;;;;;;;;;;;;;;;;;5085109;28;19920;-74
2021/03/25 01:22:13;;;;;;;;;;;;;;;;;;5087189;28;19924;-74
2021/03/25 01:24:39;;;;;;;;;;;;;;;;;;5052660;28;19923;-74
2021/03/25 01:27:04;;;;;;;;;;;;;;;;;;5069645;28;19939;-74
2021/03/25 01:29:30;;;;;;;;;;;;;;;;;;5069885;28;19912;-74
2021/03/25 01:31:55;;;;;;;;;;;;;;;;;;5069628;28;20003;-74
2021/03/25 01:34:22;;;;;;;;;;;;;;;;;;5069273;28;19912;-74
2021/03/25 01:36:47;;;;;;;;;;;;;;;;;;5069544;28;20003;-74
2021/03/25 01:39:12;;;;;;;;;;;;;;;;;;5086169;28;19948;-74
2021/03/25 01:41:38;;;;;;;;;;;;;;;;;;5085944;28;19920;-74
2021/03/25 01:44:04;;;;;;;;;;;;;;;;;;5069409;28;19964;-74
2021/03/25 01:46:36;;;;;;;;;;;;;;;;;;5069606;28;20335;-74
2021/03/25 01:49:05;;;;;;;;;;;;;;;;;;5069178;28;19913;-74
2021/03/25 01:51:31;;;;;;;;;;;;;;;;;;5085668;28;19919;-74
2021/03/25 01:54:02;;;;;;;;;;;;;;;;;;5069063;28;20337;-74
2021/03/25 01:56:30;;;;;;;;;;;;;;;;;;5053642;28;19917;-74
2021/03/25 01:58:58;;;;;;;;;;;;;;;;;;5053286;28;20007;-74
2021/03/25 02:01:24;;;;;;;;;;;;;;;;;;5053401;28;19917;-74
2021/03/25 02:03:54;;;;;;;;;;;;;;;;;;5042237;28;20368;-74
2021/03/25 02:06:25;;;;;;;;;;;;;;;;;;5016100;28;19979;-74
2021/03/25 02:08:55;;;;;;;;;;;;;;;;;;5032474;28;19912;-74
2021/03/25 02:11:27;;;;;;;;;;;;;;;;;;5015550;28;19916;-74
2021/03/25 02:14:04;;;;;;;;;;;;;;;;;;5038320;28;19971;-74
2021/03/25 02:16:39;;;;;;;;;;;;;;;;;;5051845;28;20004;-74
2021/03/25 02:19:07;;;;;;;;;;;;;;;;;;5053377;28;19917;-74
2021/03/25 02:21:32;;;;;;;;;;;;;;;;;;5052032;28;20008;-74
2021/03/25 02:24:13;;;;;;;;;;;;;;;;;;5051643;28;19964;-74
2021/03/25 02:26:56;;;;;;;;;;;;;;;;;;5035474;28;19921;-74
2021/03/25 02:29:21;;;;;;;;;;;;;;;;;;5052037;28;19912;-74
2021/03/25 02:31:47;;;;;;;;;;;;;;;;;;5052709;28;20301;-74
2021/03/25 02:34:17;;;;;;;;;;;;;;;;;;5035192;28;20279;-74
2021/03/25 02:36:44;;;;;;;;;;;;;;;;;;5035329;28;19913;-74
2021/03/25 02:39:12;;;;;;;;;;;;;;;;;;5051448;28;19916;-74
2021/03/25 02:41:41;;;;;;;;;;;;;;;;;;5051319;28;20008;-74
2021/03/25 02:44:11;;;;;;;;;;;;;;;;;;5035287;28;19916;-74
2021/03/25 02:46:37;;;;;;;;;;;;;;;;;;5031496;28;19913;-74
2021/03/25 02:49:03;;;;;;;;;;;;;;;;;;5048545;28;19920;-74
2021/03/25 02:51:31;;;;;;;;;;;;;;;;;;5064701;28;19917;-74
2021/03/25 02:53:56;;;;;;;;;;;;;;;;;;5064253;28;19913;-74
2021/03/25 02:56:29;;;;;;;;;;;;;;;;;;5031630;28;19920;-74
2021/03/25 02:59:01;;;;;;;;;;;;;;;;;;5077467;28;19966;-74
2021/03/25 03:01:26;;;;;;;;;;;;;;;;;;5084839;28;20012;-74
2021/03/25 03:04:02;;;;;;;;;;;;;;;;;;5084846;28;20007;-74
2021/03/25 03:06:29;;;;;;;;;;;;;;;;;;5067823;28;19912;-74
2021/03/25 03:08:56;;;;;;;;;;;;;;;;;;5067661;28;19913;-74
2021/03/25 03:11:28;;;;;;;;;;;;;;;;;;5050689;28;19916;-74
2021/03/25 03:13:54;;;;;;;;;;;;;;;;;;5062038;28;19928;-74
2021/03/25 03:16:30;;;;;;;;;;;;;;;;;;5064549;28;19913;-74
2021/03/25 03:18:56;;;;;;;;;;;;;;;;;;5050854;28;19954;-74
2021/03/25 03:21:28;;;;;;;;;;;;;;;;;;5067718;28;19917;-74
2021/03/25 03:23:54;;;;;;;;;;;;;;;;;;5067362;28;20395;-74
2021/03/25 03:26:21;;;;;;;;;;;;;;;;;;5050882;28;19920;-74
2021/03/25 03:28:47;;;;;;;;;;;;;;;;;;5083837;28;19913;-74
2021/03/25 03:31:16;;;;;;;;;;;;;;;;;;5084512;28;20370;-74
2021/03/25 03:33:45;;;;;;;;;;;;;;;;;;5084561;28;19920;-74
2021/03/25 03:36:12;;;;;;;;;;;;;;;;;;5083574;28;20387;-74
2021/03/25 03:38:37;;;;;;;;;;;;;;;;;;5067518;28;20010;-74
2021/03/25 03:41:02;;;;;;;;;;;;;;;;;;5051663;28;19952;-74
2021/03/25 03:43:28;;;;;;;;;;;;;;;;;;5083786;28;20021;-74
2021/03/25 03:46:12;;;;;;;;;;;;;;;;;;5084327;28;19925;-74
2021/03/25 03:48:38;;;;;;;;;;;;;;;;;;5084274;28;19917;-74
2021/03/25 03:51:03;;;;;;;;;;;;;;;;;;5050889;28;19948;-74
2021/03/25 03:53:28;;;;;;;;;;;;;;;;;;5067320;28;19916;-74
2021/03/25 03:55:59;;;;;;;;;;;;;;;;;;5083746;28;19913;-74
2021/03/25 03:58:51;;;;;;;;;;;;;;;;;;5074356;28;20264;-74
2021/03/25 04:01:21;;;;;;;;;;;;;;;;;;5031467;28;19913;-74
2021/03/25 04:03:47;;;;;;;;;;;;;;;;;;5050634;28;20366;-74
2021/03/25 04:06:17;;;;;;;;;;;;;;;;;;5034059;28;19920;-74
2021/03/25 04:08:42;;;;;;;;;;;;;;;;;;5050344;28;20283;-74
2021/03/25 04:11:28;;;;;;;;;;;;;;;;;;5051453;28;19927;-74
2021/03/25 04:14:00;;;;;;;;;;;;;;;;;;5049982;28;20038;-74
2021/03/25 04:16:26;;;;;;;;;;;;;;;;;;5033516;28;19912;-74
2021/03/25 04:18:56;;;;;;;;;;;;;;;;;;5072883;28;20401;-74
2021/03/25 04:21:23;;;;;;;;;;;;;;;;;;5046998;28;19952;-74
2021/03/25 04:23:49;;;;;;;;;;;;;;;;;;5063556;28;20733;-74
2021/03/25 04:26:16;;;;;;;;;;;;;;;;;;5046703;28;20425;-74
2021/03/25 04:28:43;;;;;;;;;;;;;;;;;;5034270;28;19913;-74
2021/03/25 04:31:08;;;;;;;;;;;;;;;;;;5067507;28;20032;-74
2021/03/25 04:33:35;;;;;;;;;;;;;;;;;;5067403;28;20358;-74
2021/03/25 04:36:00;;;;;;;;;;;;;;;;;;5050792;28;19959;-74
2021/03/25 04:38:33;;;;;;;;;;;;;;;;;;5050799;28;19917;-74
2021/03/25 04:40:58;;;;;;;;;;;;;;;;;;5066574;28;19923;-74
2021/03/25 04:43:24;;;;;;;;;;;;;;;;;;5067284;28;19921;-74
2021/03/25 04:45:51;;;;;;;;;;;;;;;;;;5074808;28;19951;-74
2021/03/25 04:48:20;;;;;;;;;;;;;;;;;;5054043;28;19916;-74
2021/03/25 04:50:48;;;;;;;;;;;;;;;;;;5053983;28;19926;-74
2021/03/25 04:53:16;;;;;;;;;;;;;;;;;;5037102;28;19917;-74
2021/03/25 04:55:42;;;;;;;;;;;;;;;;;;5053277;28;19920;-74
2021/03/25 04:58:08;;;;;;;;;;;;;;;;;;5043680;28;20386;-74
2021/03/25 05:00:35;;;;;;;;;;;;;;;;;;5073352;28;19965;-74
2021/03/25 05:03:01;;;;;;;;;;;;;;;;;;5073204;28;20401;-74
2021/03/25 05:05:27;;;;;;;;;;;;;;;;;;5073733;28;19913;-74
2021/03/25 05:07:57;;;;;;;;;;;;;;;;;;5073678;28;20447;-74
2021/03/25 05:10:24;;;;;;;;;;;;;;;;;;5072708;28;20016;-74
2021/03/25 05:12:50;;;;;;;;;;;;;;;;;;5073499;28;20297;-74
2021/03/25 05:15:15;;;;;;;;;;;;;;;;;;5020607;28;19920;-74
2021/03/25 05:17:46;;;;;;;;;;;;;;;;;;5053246;28;19920;-74
2021/03/25 05:20:16;;;;;;;;;;;;;;;;;;5087394;28;19913;-74
2021/03/25 05:23:00;;;;;;;;;;;;;;;;;;5086845;28;19917;-74
2021/03/25 05:25:47;;;;;;;;;;;;;;;;;;5052317;28;19913;-74
2021/03/25 05:28:15;;;;;;;;;;;;;;;;;;5054149;28;19922;-74
2021/03/25 05:30:40;;;;;;;;;;;;;;;;;;5053001;28;19934;-74
2021/03/25 05:33:08;;;;;;;;;;;;;;;;;;5069564;28;20310;-74
2021/03/25 05:35:34;;;;;;;;;;;;;;;;;;5086986;28;20054;-74
2021/03/25 05:38:00;;;;;;;;;;;;;;;;;;5068820;28;19913;-74
2021/03/25 05:40:26;;;;;;;;;;;;;;;;;;5084709;28;19923;-74
2021/03/25 05:42:58;;;;;;;;;;;;;;;;;;5052654;28;20461;-74
2021/03/25 05:45:33;;;;;;;;;;;;;;;;;;5086640;28;19912;-74
2021/03/25 05:48:10;;;;;;;;;;;;;;;;;;5086762;28;19925;-74
2021/03/25 05:50:51;;;;;;;;;;;;;;;;;;5052645;28;19963;-74
2021/03/25 05:53:23;;;;;;;;;;;;;;;;;;5035660;28;20383;-73
2021/03/25 05:56:01;;;;;;;;;;;;;;;;;;5083970;28;19921;-74
2021/03/25 05:58:31;;;;;;;;;;;;;;;;;;5056865;28;19927;-74
2021/03/25 06:01:03;;;;;;;;;;;;;;;;;;5031184;28;19963;-75
2021/03/25 06:03:28;;;;;;;;;;;;;;;;;;5049330;28;19917;-75
2021/03/25 06:05:54;;;;;;;;;;;;;;;;;;5032638;28;19927;-74
2021/03/25 06:08:20;;;;;;;;;;;;;;;;;;5032156;28;19944;-74
2021/03/25 06:10:54;;;;;;;;;;;;;;;;;;5036710;28;19925;-74
2021/03/25 06:13:26;;;;;;;;;;;;;;;;;;5032407;28;19917;-74
2021/03/25 06:16:11;;;;;;;;;;;;;;;;;;5051886;28;19916;-74
2021/03/25 06:18:37;;;;;;;;;;;;;;;;;;5043520;28;19913;-74
2021/03/25 06:21:17;;;;;;;;;;;;;;;;;;5052364;28;19923;-74
2021/03/25 06:23:42;;;;;;;;;;;;;;;;;;5065426;28;19913;-74
2021/03/25 06:26:10;;;;;;;;;;;;;;;;;;5072008;28;19982;-74
2021/03/25 06:28:37;;;;;;;;;;;;;;;;;;5072836;28;19951;-74
2021/03/25 06:31:06;;;;;;;;;;;;;;;;;;5049686;28;19916;-74
2021/03/25 06:33:38;;;;;;;;;;;;;;;;;;5051826;28;19974;-74
2021/03/25 06:36:04;;;;;;;;;;;;;;;;;;5052089;28;19912;-74
2021/03/25 06:38:38;;;;;;;;;;;;;;;;;;5034727;28;19939;-74
2021/03/25 06:41:08;;;;;;;;;;;;;;;;;;5052864;28;20390;-74
2021/03/25 06:43:52;;;;;;;;;;;;;;;;;;5051807;28;19923;-74
2021/03/25 06:46:25;;;;;;;;;;;;;;;;;;5052839;28;19912;-74
2021/03/25 06:48:52;;;;;;;;;;;;;;;;;;5068145;28;20325;-73
2021/03/25 06:51:20;;;;;;;;;;;;;;;;;;5084402;28;20388;-73
2021/03/25 06:53:45;;;;;;;;;;;;;;;;;;5084998;28;19963;-73
2021/03/25 06:56:13;;;;;;;;;;;;;;;;;;5082748;28;19917;-74
2021/03/25 06:58:42;;;;;;;;;;;;;;;;;;5076264;28;19942;-74
2021/03/25 07:01:10;;;;;;;;;;;;;;;;;;5067954;28;20008;-74
2021/03/25 07:03:36;;;;;;;;;;;;;;;;;;5052198;28;19917;-74
2021/03/25 07:06:01;;;;;;;;;;;;;;;;;;5050903;28;20370;-73
2021/03/25 07:08:28;;;;;;;;;;;;;;;;;;5034720;28;19920;-74
2021/03/25 07:10:58;;;;;;;;;;;;;;;;;;5030573;28;19917;-72
2021/03/25 07:13:45;;;;;;;;;;;;;;;;;;5048392;28;19924;-73
2021/03/25 07:16:10;;;;;;;;;;;;;;;;;;5052066;28;19919;-73
2021/03/25 07:18:48;;;;;;;;;;;;;;;;;;5051015;28;19913;-73
2021/03/25 07:21:21;;;;;;;;;;;;;;;;;;5050971;28;19912;-73
2021/03/25 07:23:46;;;;;;;;;;;;;;;;;;5050961;28;19928;-73
2021/03/25 07:26:18;;;;;;;;;;;;;;;;;;5050983;28;19924;-73
2021/03/25 07:28:44;;;;;;;;;;;;;;;;;;5034425;28;19991;-72
2021/03/25 07:31:09;;;;;;;;;;;;;;;;;;5050794;28;19916;-73
2021/03/25 07:33:38;;;;;;;;;;;;;;;;;;5050771;28;19912;-73
2021/03/25 07:36:10;;;;;;;;;;;;;;;;;;5050496;28;19912;-73
2021/03/25 07:38:38;;;;;;;;;;;;;;;;;;5050594;28;19958;-72
2021/03/25 07:41:05;;;;;;;;;;;;;;;;;;5033707;28;19920;-72
2021/03/25 07:43:30;;;;;;;;;;;;;;;;;;5030691;28;19974;-72
2021/03/25 07:46:22;;;;;;;;;;;;;;;;;;5055938;28;19914;-72
2021/03/25 07:48:58;;;;;;;;;;;;;;;;;;5052790;28;19978;-72
2021/03/25 07:51:23;;;;;;;;;;;;;;;;;;5083810;28;20337;-72
2021/03/25 07:53:50;;;;;;;;;;;;;;;;;;5083515;28;19916;-72
2021/03/25 07:56:16;;;;;;;;;;;;;;;;;;5067378;28;19913;-73
2021/03/25 07:58:45;;;;;;;;;;;;;;;;;;5083766;28;20263;-72
2021/03/25 08:01:10;;;;;;;;;;;;;;;;;;5085567;28;19919;-72
2021/03/25 08:03:46;;;;;;;;;;;;;;;;;;5054620;28;19924;-72
2021/03/25 08:06:30;;;;;;;;;;;;;;;;;;5088426;28;19913;-71
2021/03/25 08:09:04;;;;;;;;;;;;;;;;;;5070949;28;19928;-72
2021/03/25 08:11:30;;;;;;;;;;;;;;;;;;5054276;28;19916;-72
2021/03/25 08:13:55;;;;;;;;;;;;;;;;;;5082519;28;19917;-72
2021/03/25 08:16:20;;;;;;;;;;;;;;;;;;5046069;28;19917;-72
2021/03/25 08:19:04;;;;;;;;;;;;;;;;;;5054219;28;19935;-72
2021/03/25 08:21:39;;;;;;;;;;;;;;;;;;5055821;28;20023;-72
2021/03/25 08:24:23;;;;;;;;;;;;;;;;;;5053758;28;19916;-72
2021/03/25 08:27:04;;;;;;;;;;;;;;;;;;5055257;28;19917;-72
2021/03/25 08:29:34;;;;;;;;;;;;;;;;;;5087664;28;19923;-73
2021/03/25 08:32:11;;;;;;;;;;;;;;;;;;5087915;28;19924;-73
2021/03/25 08:34:55;;;;;;;;;;;;;;;;;;5055152;28;19919;-76
2021/03/25 08:37:31;;;;;;;;;;;;;;;;;;5053821;28;20378;-76
2021/03/25 08:40:15;;;;;;;;;;;;;;;;;;5087532;28;19912;-76
2021/03/25 08:43:10;;;;;;;;;;;;;;;;;;5055183;28;19923;-78
2021/03/25 08:45:43;;;;;;;;;;;;;;;;;;5058432;28;19917;-76
2021/03/25 08:48:09;;;;;;;;;;;;;;;;;;5086959;28;19952;-76
2021/03/25 08:50:39;;;;;;;;;;;;;;;;;;5054331;28;19952;-76
2021/03/25 08:53:06;;;;;;;;;;;;;;;;;;5083523;28;19923;-76
2021/03/25 08:55:32;;;;;;;;;;;;;;;;;;5084443;28;20373;-77
2021/03/25 08:58:00;;;;;;;;;;;;;;;;;;5069960;28;19913;-76
2021/03/25 09:00:26;;;;;;;;;;;;;;;;;;5049106;28;19924;-76
2021/03/25 09:03:02;;;;;;;;;;;;;;;;;;5066440;28;19916;-77
2021/03/25 09:05:33;;;;;;;;;;;;;;;;;;5066869;28;19963;-76
2021/03/25 09:07:59;;;;;;;;;;;;;;;;;;5049686;28;19917;-77
2021/03/25 09:10:35;;;;;;;;;;;;;;;;;;5066259;28;20408;-76
2021/03/25 09:13:00;;;;;;;;;;;;;;;;;;5073765;28;19921;-76
2021/03/25 09:15:25;;;;;;;;;;;;;;;;;;5069089;28;20291;-76
2021/03/25 09:17:55;;;;;;;;;;;;;;;;;;5045439;28;19925;-76
2021/03/25 09:20:30;;;;;;;;;;;;;;;;;;5053159;28;19912;-76
2021/03/25 09:22:57;;;;;;;;;;;;;;;;;;5052718;28;19913;-76
2021/03/25 09:25:31;;;;;;;;;;;;;;;;;;5052810;28;19913;-75
2021/03/25 09:28:07;;;;;;;;;;;;;;;;;;5053244;28;19956;-76
2021/03/25 09:30:33;;;;;;;;;;;;;;;;;;5036301;28;20409;-76
2021/03/25 09:33:17;;;;;;;;;;;;;;;;;;5053240;28;19948;-76
2021/03/25 09:35:43;;;;;;;;;;;;;;;;;;5052843;28;19912;-76
2021/03/25 09:38:13;;;;;;;;;;;;;;;;;;5069240;28;19916;-76
2021/03/25 09:40:43;;;;;;;;;;;;;;;;;;5085775;28;20466;-76
2021/03/25 09:43:13;;;;;;;;;;;;;;;;;;5086222;28;20418;-76
2021/03/25 09:45:38;;;;;;;;;;;;;;;;;;5068986;28;20383;-76
2021/03/25 09:48:04;;;;;;;;;;;;;;;;;;5068927;28;19962;-76
2021/03/25 09:50:29;;;;;;;;;;;;;;;;;;5069388;28;19916;-76
2021/03/25 09:53:11;;;;;;;;;;;;;;;;;;5085783;28;19959;-76
2021/03/25 09:55:37;;;;;;;;;;;;;;;;;;5069300;28;19912;-76
2021/03/25 09:58:02;;;;;;;;;;;;;;;;;;5085638;28;19913;-76
2021/03/25 10:00:28;;;;;;;;;;;;;;;;;;5085325;28;19970;-76
2021/03/25 10:02:58;;;;;;;;;;;;;;;;;;5047043;28;19978;-76
2021/03/25 10:05:33;;;;;;;;;;;;;;;;;;5019145;28;19913;-76
2021/03/25 10:08:18;;;;;;;;;;;;;;;;;;5053158;28;19927;-76
2021/03/25 10:10:49;;;;;;;;;;;;;;;;;;5052188;28;19917;-76
2021/03/25 10:13:16;;;;;;;;;;;;;;;;;;5053147;28;19931;-76
2021/03/25 10:16:07;;;;;;;;;;;;;;;;;;5068517;28;19913;-77
2021/03/25 10:18:33;;;;;;;;;;;;;;;;;;5051440;28;19919;-76
2021/03/25 10:21:15;;;;;;;;;;;;;;;;;;5052982;28;19916;-76
2021/03/25 10:23:49;;;;;;;;;;;;;;;;;;5034810;28;19919;-76
2021/03/25 10:26:33;;;;;;;;;;;;;;;;;;5052824;28;19916;-76
2021/03/25 10:29:04;;;;;;;;;;;;;;;;;;5034715;28;20287;-77
2021/03/25 10:31:35;;;;;;;;;;;;;;;;;;5051925;28;20279;-76
2021/03/25 10:34:11;;;;;;;;;;;;;;;;;;5051703;28;19912;-76
2021/03/25 10:36:41;;;;;;;;;;;;;;;;;;5051693;28;19913;-76
2021/03/25 10:39:07;;;;;;;;;;;;;;;;;;5051418;28;19951;-76
2021/03/25 10:41:34;;;;;;;;;;;;;;;;;;5051038;28;19960;-76
2021/03/25 10:44:15;;;;;;;;;;;;;;;;;;5051253;28;19921;-76
2021/03/25 10:46:40;;;;;;;;;;;;;;;;;;5018283;28;19962;-77
2021/03/25 10:49:13;;;;;;;;;;;;;;;;;;5084981;28;19917;-76
2021/03/25 10:51:39;;;;;;;;;;;;;;;;;;5084850;28;19917;-77
2021/03/25 10:54:06;;;;;;;;;;;;;;;;;;5067748;28;19916;-77
2021/03/25 10:56:39;;;;;;;;;;;;;;;;;;5069028;28;20428;-77
2021/03/25 10:59:07;;;;;;;;;;;;;;;;;;5032276;28;19924;-73
2021/03/25 11:01:34;;;;;;;;;;;;;;;;;;5048792;28;19920;-73
2021/03/25 11:03:59;;;;;;;;;;;;;;;;;;5046071;28;19929;-73
2021/03/25 11:06:29;;;;;;;;;;;;;;;;;;5044864;28;20605;-73
2021/03/25 11:08:59;;;;;;;;;;;;;;;;;;5029832;28;19931;-73
2021/03/25 11:11:25;;;;;;;;;;;;;;;;;;5013571;28;19920;-74
2021/03/25 11:13:59;;;;;;;;;;;;;;;;;;5051359;28;19986;-73
2021/03/25 11:16:25;;;;;;;;;;;;;;;;;;5035307;28;19999;-75
2021/03/25 11:18:55;;;;;;;;;;;;;;;;;;5067768;28;20016;-75
2021/03/25 11:21:24;;;;;;;;;;;;;;;;;;5085251;28;19959;-75
2021/03/25 11:23:50;;;;;;;;;;;;;;;;;;5051268;28;19916;-75
2021/03/25 11:26:16;;;;;;;;;;;;;;;;;;5033804;28;19935;-75
2021/03/25 11:28:41;;;;;;;;;;;;;;;;;;5050784;28;19913;-76
2021/03/25 11:31:25;;;;;;;;;;;;;;;;;;5034016;28;19920;-75
2021/03/25 11:33:51;;;;;;;;;;;;;;;;;;5032003;28;19913;-75
2021/03/25 11:36:35;;;;;;;;;;;;;;;;;;5064959;28;19912;-76
2021/03/25 11:39:12;;;;;;;;;;;;;;;;;;5031647;28;19913;-75
2021/03/25 11:41:37;;;;;;;;;;;;;;;;;;5069202;28;19999;-75
2021/03/25 11:44:05;;;;;;;;;;;;;;;;;;5052939;28;19924;-75
2021/03/25 11:46:36;;;;;;;;;;;;;;;;;;5042974;28;19916;-74
2021/03/25 11:49:05;;;;;;;;;;;;;;;;;;5030519;28;19920;-74
2021/03/25 11:51:30;;;;;;;;;;;;;;;;;;5031948;28;19913;-74
2021/03/25 11:53:55;;;;;;;;;;;;;;;;;;5030094;28;20318;-74
2021/03/25 11:56:24;;;;;;;;;;;;;;;;;;5030577;28;19913;-74
2021/03/25 11:58:50;;;;;;;;;;;;;;;;;;5056808;28;19923;-74
2021/03/25 12:01:15;;;;;;;;;;;;;;;;;;5057522;28;20007;-74
2021/03/25 12:03:48;;;;;;;;;;;;;;;;;;5051536;28;19913;-75
2021/03/25 12:06:17;;;;;;;;;;;;;;;;;;5067254;28;20359;-74
2021/03/25 12:08:42;;;;;;;;;;;;;;;;;;5048124;28;19935;-74
2021/03/25 12:11:11;;;;;;;;;;;;;;;;;;5029956;28;20450;-74
2021/03/25 12:13:37;;;;;;;;;;;;;;;;;;5033249;28;20043;-74
2021/03/25 12:16:02;;;;;;;;;;;;;;;;;;5050222;28;19931;-74
2021/03/25 12:18:29;;;;;;;;;;;;;;;;;;5030587;28;19917;-74
2021/03/25 12:20:55;;;;;;;;;;;;;;;;;;5049658;28;19924;-74
2021/03/25 12:23:25;;;;;;;;;;;;;;;;;;5061778;28;19916;-74
2021/03/25 12:25:51;;;;;;;;;;;;;;;;;;5053855;28;19913;-74
2021/03/25 12:28:16;;;;;;;;;;;;;;;;;;5030212;28;19913;-74
2021/03/25 12:30:42;;;;;;;;;;;;;;;;;;5049436;28;19913;-75
2021/03/25 12:33:09;;;;;;;;;;;;;;;;;;5038349;28;19924;-74
2021/03/25 12:35:35;;;;;;;;;;;;;;;;;;5063646;28;19917;-74
2021/03/25 12:38:01;;;;;;;;;;;;;;;;;;5046976;28;20007;-74
2021/03/25 12:40:26;;;;;;;;;;;;;;;;;;5045960;28;20000;-74
2021/03/25 12:42:51;;;;;;;;;;;;;;;;;;5060982;28;19932;-74
2021/03/25 12:45:24;;;;;;;;;;;;;;;;;;5030738;28;19962;-73
2021/03/25 12:47:49;;;;;;;;;;;;;;;;;;5083314;28;19917;-73
2021/03/25 12:50:14;;;;;;;;;;;;;;;;;;5053923;28;20409;-73
2021/03/25 12:52:40;;;;;;;;;;;;;;;;;;5087380;28;19975;-74
2021/03/25 12:55:05;;;;;;;;;;;;;;;;;;5086690;28;20454;-74
2021/03/25 12:57:31;;;;;;;;;;;;;;;;;;5088631;28;19916;-74
2021/03/25 12:59:58;;;;;;;;;;;;;;;;;;5073355;28;20439;-73
2021/03/25 13:02:23;;;;;;;;;;;;;;;;;;5032245;28;19913;-74
2021/03/25 13:04:48;;;;;;;;;;;;;;;;;;5070060;28;19922;-74
2021/03/25 13:07:14;;;;;;;;;;;;;;;;;;5055117;28;20378;-74
2021/03/25 13:09:39;;;;;;;;;;;;;;;;;;5086465;28;19921;-74
2021/03/25 13:12:11;;;;;;;;;;;;;;;;;;5086760;28;19959;-74
2021/03/25 13:14:37;;;;;;;;;;;;;;;;;;5053120;28;19924;-74
2021/03/25 13:17:02;;;;;;;;;;;;;;;;;;5036606;28;19913;-74
2021/03/25 13:19:27;;;;;;;;;;;;;;;;;;5037119;28;20144;-74
2021/03/25 13:21:52;;;;;;;;;;;;;;;;;;5033690;28;19913;-74
2021/03/25 13:24:18;;;;;;;;;;;;;;;;;;5032661;28;19952;-74
2021/03/25 13:26:43;;;;;;;;;;;;;;;;;;5032632;28;20038;-74
2021/03/25 13:29:08;;;;;;;;;;;;;;;;;;5066411;28;19921;-74
2021/03/25 13:31:34;;;;;;;;;;;;;;;;;;5034317;28;19924;-74
2021/03/25 13:33:59;;;;;;;;;;;;;;;;;;5049917;28;19924;-74
2021/03/25 13:36:24;;;;;;;;;;;;;;;;;;5049550;28;19912;-74
2021/03/25 13:38:50;;;;;;;;;;;;;;;;;;5049090;28;19920;-74
2021/03/25 13:41:15;;;;;;;;;;;;;;;;;;5066064;28;20039;-74
2021/03/25 13:43:40;;;;;;;;;;;;;;;;;;5033980;28;19917;-74
2021/03/25 13:46:06;;;;;;;;;;;;;;;;;;5076434;28;19916;-74
2021/03/25 13:48:31;;;;;;;;;;;;;;;;;;5086280;28;19995;-74
2021/03/25 13:50:57;;;;;;;;;;;;;;;;;;5069464;28;19919;-74
2021/03/25 13:53:22;;;;;;;;;;;;;;;;;;5069050;28;19913;-74
2021/03/25 13:55:48;;;;;;;;;;;;;;;;;;5085874;28;20382;-74
2021/03/25 13:58:14;;;;;;;;;;;;;;;;;;5060808;28;19913;-74
2021/03/25 14:00:40;;;;;;;;;;;;;;;;;;5032486;28;20016;-74
2021/03/25 14:03:05;;;;;;;;;;;;;;;;;;5046171;28;19987;-73
2021/03/25 14:05:31;;;;;;;;;;;;;;;;;;5035878;28;19913;-74
2021/03/25 14:07:56;;;;;;;;;;;;;;;;;;5052094;28;20386;-74
2021/03/25 14:10:21;;;;;;;;;;;;;;;;;;5035315;28;19920;-74
2021/03/25 14:12:47;;;;;;;;;;;;;;;;;;5035708;28;19970;-74
2021/03/25 14:15:13;;;;;;;;;;;;;;;;;;5032105;28;19913;-74
2021/03/25 14:17:38;;;;;;;;;;;;;;;;;;5066544;28;19924;-74
2021/03/25 14:20:04;;;;;;;;;;;;;;;;;;5084910;28;19925;-74
2021/03/25 14:22:29;;;;;;;;;;;;;;;;;;5053073;28;20004;-74
2021/03/25 14:24:55;;;;;;;;;;;;;;;;;;5068295;28;19935;-74
2021/03/25 14:27:20;;;;;;;;;;;;;;;;;;5085356;28;19967;-74
2021/03/25 14:29:45;;;;;;;;;;;;;;;;;;5068235;28;19999;-74
2021/03/25 14:32:10;;;;;;;;;;;;;;;;;;5052046;28;19951;-74
2021/03/25 14:34:36;;;;;;;;;;;;;;;;;;5085579;28;19920;-74
2021/03/25 14:37:01;;;;;;;;;;;;;;;;;;5051194;28;19913;-74
2021/03/25 14:39:27;;;;;;;;;;;;;;;;;;5068048;28;19913;-74
2021/03/25 14:41:52;;;;;;;;;;;;;;;;;;5084853;28;20016;-74
2021/03/25 14:44:17;;;;;;;;;;;;;;;;;;5085257;28;20050;-74
2021/03/25 14:46:42;;;;;;;;;;;;;;;;;;5053226;28;19919;-74
2021/03/25 14:49:08;;;;;;;;;;;;;;;;;;5068309;28;19920;-74
2021/03/25 14:51:40;;;;;;;;;;;;;;;;;;5084799;28;19919;-74
2021/03/25 14:54:05;;;;;;;;;;;;;;;;;;5067030;28;19995;-75
2021/03/25 14:56:30;;;;;;;;;;;;;;;;;;5084807;28;20011;-74
2021/03/25 14:58:55;;;;;;;;;;;;;;;;;;5052505;28;19912;-74
2021/03/25 15:01:21;;;;;;;;;;;;;;;;;;5085121;28;19913;-73
2021/03/25 15:03:46;;;;;;;;;;;;;;;;;;5084727;28;19920;-75
2021/03/25 15:06:11;;;;;;;;;;;;;;;;;;5050386;28;20353;-74
2021/03/25 15:08:37;;;;;;;;;;;;;;;;;;5051685;28;19913;-74
2021/03/25 15:11:02;;;;;;;;;;;;;;;;;;5033226;28;20489;-74
2021/03/25 15:13:27;;;;;;;;;;;;;;;;;;5031623;28;19921;-74
2021/03/25 15:15:53;;;;;;;;;;;;;;;;;;5034806;28;19935;-74
2021/03/25 15:18:19;;;;;;;;;;;;;;;;;;5052705;28;19940;-74
2021/03/25 15:20:44;;;;;;;;;;;;;;;;;;5067192;28;19916;-75
2021/03/25 15:23:11;;;;;;;;;;;;;;;;;;5084413;28;19970;-74
2021/03/25 15:25:37;;;;;;;;;;;;;;;;;;5067564;28;19920;-74
2021/03/25 15:28:02;;;;;;;;;;;;;;;;;;5084552;28;20321;-74
2021/03/25 15:30:28;;;;;;;;;;;;;;;;;;5084297;28;20370;-73
2021/03/25 15:32:53;;;;;;;;;;;;;;;;;;5083594;28;19996;-74
2021/03/25 15:35:30;;;;;;;;;;;;;;;;;;5084667;28;20381;-74
2021/03/25 15:37:55;;;;;;;;;;;;;;;;;;5066898;28;19978;-74
2021/03/25 15:40:20;;;;;;;;;;;;;;;;;;5079373;28;20371;-74
2021/03/25 15:42:46;;;;;;;;;;;;;;;;;;5050454;28;19960;-74
2021/03/25 15:45:12;;;;;;;;;;;;;;;;;;5049886;28;20011;-74
2021/03/25 15:47:37;;;;;;;;;;;;;;;;;;5051634;28;19920;-74
2021/03/25 15:50:03;;;;;;;;;;;;;;;;;;5067055;28;20310;-74
2021/03/25 15:52:28;;;;;;;;;;;;;;;;;;5084220;28;19917;-74
2021/03/25 15:54:54;;;;;;;;;;;;;;;;;;5072993;28;19920;-74
2021/03/25 15:57:19;;;;;;;;;;;;;;;;;;5043489;28;19916;-74
2021/03/25 15:59:44;;;;;;;;;;;;;;;;;;5070585;28;19916;-74
2021/03/25 16:02:10;;;;;;;;;;;;;;;;;;5065661;28;19913;-74
2021/03/25 16:04:35;;;;;;;;;;;;;;;;;;5051613;28;19935;-74
2021/03/25 16:07:04;;;;;;;;;;;;;;;;;;5082080;28;19966;-75
2021/03/25 16:09:29;;;;;;;;;;;;;;;;;;5073978;28;19917;-74
2021/03/25 16:11:54;;;;;;;;;;;;;;;;;;5030106;28;19943;-75
2021/03/25 16:14:20;;;;;;;;;;;;;;;;;;5043340;28;19927;-74
2021/03/25 16:16:46;;;;;;;;;;;;;;;;;;5042754;28;19917;-75
2021/03/25 16:19:11;;;;;;;;;;;;;;;;;;5045025;28;20405;-74
2021/03/25 16:21:36;;;;;;;;;;;;;;;;;;5046097;28;20018;-76
2021/03/25 16:24:01;;;;;;;;;;;;;;;;;;5034184;28;20294;-75
2021/03/25 16:26:29;;;;;;;;;;;;;;;;;;5034444;28;19917;-75
2021/03/25 16:28:54;;;;;;;;;;;;;;;;;;5034156;28;19917;-76
2021/03/25 16:31:20;;;;;;;;;;;;;;;;;;5033807;28;19936;-75
2021/03/25 16:33:45;;;;;;;;;;;;;;;;;;5001640;28;19917;-75
2021/03/25 16:36:10;;;;;;;;;;;;;;;;;;5067242;28;19952;-75
2021/03/25 16:38:36;;;;;;;;;;;;;;;;;;5034033;28;19920;-75
2021/03/25 16:41:01;;;;;;;;;;;;;;;;;;5033632;28;19917;-75
2021/03/25 16:43:29;;;;;;;;;;;;;;;;;;5034165;28;19923;-75
2021/03/25 16:45:55;;;;;;;;;;;;;;;;;;5058925;28;19967;-75
2021/03/25 16:48:20;;;;;;;;;;;;;;;;;;5079440;28;19917;-75
2021/03/25 16:50:46;;;;;;;;;;;;;;;;;;5051531;28;19913;-75
2021/03/25 16:53:12;;;;;;;;;;;;;;;;;;5038394;28;19917;-74
2021/03/25 16:55:38;;;;;;;;;;;;;;;;;;5086589;28;19944;-74